Time;durP1;ratioP1;P1;durP2;ratioP2;P2;SDS_P1;SDS_P2;PMS_P1;PMS_P2;Temp;Humidity;BMP_temperature;BMP_pressure;BME280_temperature;BME280_humidity;BME280_pressure;Samples;Min_cycle;Max_cycle;Signal;HPM_P1;HPM_P2
2021/11/22 00:00:39;;;;;;;94.50;79.37;;;4.40;99.90;;;;;;5139209;27;20177;-84
2021/11/22 00:03:06;;;;;;;93.45;79.60;;;4.50;99.90;;;;;;5138945;27;20544;-83
2021/11/22 00:05:32;;;;;;;100.25;77.55;;;4.40;99.90;;;;;;5139254;27;20158;-84
2021/11/22 00:07:58;;;;;;;98.75;87.72;;;4.40;99.90;;;;;;5137616;27;20161;-84
2021/11/22 00:10:23;;;;;;;94.30;76.27;;;4.40;99.90;;;;;;5139173;27;20272;-84
2021/11/22 00:12:50;;;;;;;95.53;80.77;;;4.40;99.90;;;;;;5139450;27;20577;-84
2021/11/22 00:15:16;;;;;;;100.00;84.22;;;4.40;99.90;;;;;;5138740;27;20162;-83
2021/11/22 00:17:43;;;;;;;98.10;85.45;;;4.30;99.90;;;;;;5139404;27;20157;-83
2021/11/22 00:20:18;;;;;;;96.50;81.90;;;4.40;99.90;;;;;;5137686;27;20665;-84
2021/11/22 00:22:44;;;;;;;98.10;84.57;;;4.40;99.90;;;;;;5138849;27;20184;-84
2021/11/22 00:25:12;;;;;;;102.70;91.78;;;4.50;99.90;;;;;;5139139;27;20217;-84
2021/11/22 00:27:37;;;;;;;103.70;92.50;;;4.60;99.90;;;;;;5138301;27;20162;-84
2021/11/22 00:30:05;;;;;;;100.50;89.73;;;4.60;99.90;;;;;;5159424;27;20241;-84
2021/11/22 00:32:34;;;;;;;108.20;96.72;;;4.60;99.90;;;;;;5141434;27;20640;-83
2021/11/22 00:35:00;;;;;;;105.88;94.45;;;4.70;99.90;;;;;;5159373;27;20169;-84
2021/11/22 00:37:51;;;;;;;93.65;77.38;;;4.60;99.90;;;;;;5141005;27;20176;-84
2021/11/22 00:40:20;;;;;;;99.90;70.85;;;4.70;99.90;;;;;;5160134;27;20731;-84
2021/11/22 00:42:47;;;;;;;105.97;94.60;;;4.60;99.90;;;;;;5158683;27;20620;-84
2021/11/22 00:45:13;;;;;;;93.03;75.90;;;4.50;99.90;;;;;;5158973;27;20640;-84
2021/11/22 00:47:41;;;;;;;104.45;91.25;;;4.50;99.90;;;;;;5159354;27;20165;-84
2021/11/22 00:50:07;;;;;;;104.75;89.10;;;4.50;99.90;;;;;;5159617;27;20598;-84
2021/11/22 00:52:33;;;;;;;102.63;91.70;;;4.60;99.90;;;;;;5159665;27;20528;-84
2021/11/22 00:55:00;;;;;;;101.97;85.40;;;4.70;99.90;;;;;;5140597;27;20169;-84
2021/11/22 00:57:26;;;;;;;97.65;73.93;;;4.80;99.90;;;;;;5159183;27;20402;-84
2021/11/22 00:59:52;;;;;;;104.77;90.40;;;4.90;99.90;;;;;;5160997;27;20195;-83
2021/11/22 01:02:18;;;;;;;112.60;101.33;;;4.90;99.90;;;;;;5161933;27;20192;-83
2021/11/22 01:04:43;;;;;;;111.10;99.80;;;4.90;99.90;;;;;;5158579;27;20178;-83
2021/11/22 01:07:09;;;;;;;104.40;93.30;;;5.00;99.90;;;;;;5158794;27;20169;-83
2021/11/22 01:09:35;;;;;;;113.10;101.47;;;4.80;99.90;;;;;;5158343;27;20180;-83
2021/11/22 01:12:01;;;;;;;98.23;83.37;;;4.80;99.90;;;;;;5158264;27;20173;-83
2021/11/22 01:14:27;;;;;;;110.17;98.47;;;4.80;99.90;;;;;;5158019;27;20209;-83
2021/11/22 01:16:53;;;;;;;110.07;77.88;;;4.70;99.90;;;;;;5158072;27;20441;-83
2021/11/22 01:19:18;;;;;;;97.90;77.63;;;4.70;99.90;;;;;;5157746;27;20191;-83
2021/11/22 01:21:45;;;;;;;100.47;87.83;;;4.70;99.90;;;;;;5139225;27;20264;-84
2021/11/22 01:24:11;;;;;;;96.28;83.38;;;4.70;99.90;;;;;;5139378;27;20406;-84
2021/11/22 01:26:37;;;;;;;97.60;77.15;;;4.70;99.90;;;;;;5140059;27;20207;-84
2021/11/22 01:29:04;;;;;;;98.80;79.60;;;4.70;99.90;;;;;;5158066;27;20189;-84
2021/11/22 01:31:30;;;;;;;102.47;91.03;;;4.60;99.90;;;;;;5158709;27;20157;-84
2021/11/22 01:33:56;;;;;;;99.55;84.18;;;4.50;99.90;;;;;;5158141;27;20632;-83
2021/11/22 01:36:21;;;;;;;121.57;109.90;;;4.50;99.90;;;;;;5158326;27;20164;-83
2021/11/22 01:38:47;;;;;;;103.93;92.53;;;4.50;99.90;;;;;;5139640;27;20192;-84
2021/11/22 01:41:13;;;;;;;93.13;68.70;;;4.60;99.90;;;;;;5158288;27;20488;-84
2021/11/22 01:43:39;;;;;;;97.20;78.97;;;4.60;99.90;;;;;;5157845;27;20438;-83
2021/11/22 01:46:04;;;;;;;105.73;92.90;;;4.60;99.90;;;;;;5138729;27;20164;-83
2021/11/22 01:48:30;;;;;;;100.77;89.80;;;4.70;99.90;;;;;;5157162;27;20659;-83
2021/11/22 01:50:56;;;;;;;116.32;104.57;;;4.60;99.90;;;;;;5157588;27;20554;-83
2021/11/22 01:53:23;;;;;;;138.93;126.13;;;4.60;99.90;;;;;;5157380;27;20168;-83
2021/11/22 01:55:50;;;;;;;138.20;125.28;;;4.70;99.90;;;;;;5157269;27;20632;-83
2021/11/22 01:58:16;;;;;;;141.45;129.20;;;4.70;99.90;;;;;;5138258;27;20173;-84
2021/11/22 02:01:03;;;;;;;177.90;163.18;;;4.70;99.90;;;;;;5138702;27;20187;-83
2021/11/22 02:03:28;;;;;;;162.95;148.55;;;4.80;99.90;;;;;;5155373;27;20619;-83
2021/11/22 02:05:54;;;;;;;201.13;186.63;;;4.90;99.90;;;;;;5157227;27;20153;-84
2021/11/22 02:08:21;;;;;;;205.07;189.90;;;5.00;99.90;;;;;;5138748;27;20161;-83
2021/11/22 02:10:48;;;;;;;205.05;190.15;;;5.10;99.90;;;;;;5156896;27;20422;-83
2021/11/22 02:13:14;;;;;;;192.48;178.00;;;5.20;99.90;;;;;;5157425;27;20627;-83
2021/11/22 02:15:40;;;;;;;237.95;221.23;;;5.30;99.90;;;;;;5156807;27;20523;-83
2021/11/22 02:18:07;;;;;;;231.85;215.35;;;5.30;99.90;;;;;;5157065;27;20157;-83
2021/11/22 02:20:33;;;;;;;234.07;218.40;;;5.30;99.90;;;;;;5138091;27;20188;-83
2021/11/22 02:23:02;;;;;;;222.07;206.13;;;5.30;99.90;;;;;;5156943;27;20272;-83
2021/11/22 02:25:30;;;;;;;238.90;222.98;;;5.30;99.90;;;;;;5157570;27;20648;-84
2021/11/22 02:27:57;;;;;;;279.25;261.77;;;5.30;99.90;;;;;;5138863;27;20165;-84
2021/11/22 02:30:30;;;;;;;216.93;201.65;;;5.20;99.90;;;;;;5156805;27;20197;-83
2021/11/22 02:33:03;;;;;;;255.70;238.98;;;5.30;99.90;;;;;;5158836;27;20145;-83
2021/11/22 02:35:31;;;;;;;228.63;212.60;;;5.30;99.90;;;;;;5158206;27;20153;-84
2021/11/22 02:37:56;;;;;;;211.48;196.35;;;5.30;99.90;;;;;;5156594;27;20564;-83
2021/11/22 02:40:22;;;;;;;238.40;222.37;;;5.40;99.90;;;;;;5156928;27;20214;-84
2021/11/22 02:42:48;;;;;;;239.52;223.63;;;5.40;99.90;;;;;;5137910;27;20434;-83
2021/11/22 02:45:17;;;;;;;265.03;247.80;;;5.40;99.90;;;;;;5156744;27;20163;-83
2021/11/22 02:47:45;;;;;;;304.35;285.85;;;5.50;99.90;;;;;;5157126;27;20654;-84
2021/11/22 02:50:13;;;;;;;294.33;276.38;;;5.50;99.90;;;;;;5138033;27;20192;-83
2021/11/22 02:52:40;;;;;;;274.92;258.08;;;5.50;99.90;;;;;;5157238;27;20210;-84
2021/11/22 02:55:12;;;;;;;251.15;233.45;;;5.50;99.90;;;;;;5138222;27;20165;-84
2021/11/22 02:58:20;;;;;;;296.33;277.88;;;5.60;99.90;;;;;;5190278;22;20228;-85
2021/11/22 03:01:34;;;;;;;252.18;235.80;;;5.50;99.90;;;;;;5114117;28;20223;-85
2021/11/22 03:03:49;;;;;;;273.63;256.30;;;5.50;99.90;;;;;;5108672;28;20186;-85
2021/11/22 03:06:32;;;;;;;325.98;306.23;;;5.60;99.90;;;;;;5098613;28;20174;-85
2021/11/22 03:09:00;;;;;;;248.98;232.63;;;5.50;99.90;;;;;;5100986;28;20214;-85
2021/11/22 03:11:55;;;;;;;306.63;286.77;;;5.50;99.90;;;;;;5102377;28;20580;-85
2021/11/22 03:14:25;;;;;;;277.95;260.23;;;5.50;99.90;;;;;;5116902;28;20233;-85
2021/11/22 03:16:58;;;;;;;286.33;268.35;;;5.50;99.90;;;;;;5119501;28;20186;-85
2021/11/22 03:19:47;;;;;;;278.05;260.58;;;5.50;99.90;;;;;;5120172;28;20194;-84
2021/11/22 03:22:50;;;;;;;307.38;288.25;;;5.60;99.90;;;;;;5120251;28;20198;-84
2021/11/22 03:25:30;;;;;;;258.92;241.95;;;5.60;99.90;;;;;;5120887;28;20568;-85
2021/11/22 03:28:11;;;;;;;274.10;256.75;;;5.50;99.90;;;;;;5119044;28;20177;-85
2021/11/22 03:30:44;;;;;;;304.23;285.23;;;5.50;99.90;;;;;;5120392;28;20227;-85
2021/11/22 03:33:51;;;;;;;;;;;;;;;;;;;;;
2021/11/22 03:36:41;;;;;;;274.63;257.27;;;5.50;99.90;;;;;;5120131;28;20265;-84
2021/11/22 03:39:49;;;;;;;;;;;;;;;;;;;;;
2021/11/22 03:43:11;;;;;;;;;;;;;;;;;;;;;
2021/11/22 03:45:52;;;;;;;285.55;267.30;;;5.60;99.90;;;;;;5119757;28;20261;-85
2021/11/22 03:48:41;;;;;;;279.67;261.70;;;5.70;99.90;;;;;;5119922;28;20185;-85
2021/11/22 03:51:30;;;;;;;302.38;284.02;;;5.60;99.90;;;;;;5100900;28;20556;-85
2021/11/22 03:54:13;;;;;;;256.70;239.30;;;5.70;99.90;;;;;;5089402;28;20264;-85
2021/11/22 03:57:31;;;;;;;291.35;272.73;;;5.60;99.90;;;;;;5120344;28;20204;-85
2021/11/22 03:59:57;;;;;;;271.63;254.13;;;5.60;99.90;;;;;;5101507;28;20187;-85
2021/11/22 04:03:07;;;;;;;275.85;258.48;;;5.60;99.90;;;;;;5101392;28;20229;-85
2021/11/22 04:05:56;;;;;;;247.70;231.20;;;5.60;99.90;;;;;;5100997;28;20641;-85
2021/11/22 04:08:25;;;;;;;318.30;299.08;;;5.70;99.90;;;;;;5119794;28;20146;-85
2021/11/22 04:10:50;;;;;;;302.60;282.95;;;5.60;99.90;;;;;;5101370;28;20186;-85
2021/11/22 04:13:16;;;;;;;250.50;233.17;;;5.70;99.90;;;;;;5120175;28;20641;-85
2021/11/22 04:15:49;;;;;;;298.07;278.83;;;5.60;99.90;;;;;;5120068;28;20163;-85
2021/11/22 04:18:29;;;;;;;266.58;249.07;;;5.70;99.90;;;;;;5119284;28;20797;-85
2021/11/22 04:21:25;;;;;;;277.48;259.25;;;5.70;99.90;;;;;;5100308;28;20261;-85
2021/11/22 04:24:03;;;;;;;246.20;229.68;;;5.70;99.90;;;;;;5119366;28;20265;-85
2021/11/22 04:26:52;;;;;;;268.10;250.75;;;5.70;99.90;;;;;;5100844;28;20178;-85
2021/11/22 04:29:27;;;;;;;262.15;244.48;;;5.80;99.90;;;;;;5056387;28;20228;-84
2021/11/22 04:32:01;;;;;;;256.02;238.35;;;5.80;99.90;;;;;;5056333;28;20180;-85
2021/11/22 04:34:30;;;;;;;274.25;256.05;;;5.80;99.90;;;;;;5096647;28;20523;-85
2021/11/22 04:37:28;;;;;;;;;;;;;;;;;;;;;
2021/11/22 04:40:02;;;;;;;265.55;247.70;;;5.90;99.90;;;;;;5119055;28;20266;-85
2021/11/22 04:42:34;;;;;;;270.27;252.32;;;5.90;99.90;;;;;;5119001;28;20195;-85
2021/11/22 04:45:02;;;;;;;283.52;264.80;;;5.90;99.90;;;;;;5100560;28;20158;-85
2021/11/22 04:48:00;;;;;;;310.73;290.48;;;5.90;99.90;;;;;;5118490;28;20166;-85
2021/11/22 04:50:39;;;;;;;295.63;277.02;;;5.90;99.90;;;;;;5074047;28;20260;-85
2021/11/22 04:53:13;;;;;;;284.08;265.65;;;5.90;99.90;;;;;;5118339;28;20625;-85
2021/11/22 04:55:42;;;;;;;278.27;259.55;;;5.90;99.90;;;;;;5101230;28;20189;-85
2021/11/22 04:58:08;;;;;;;306.58;286.95;;;5.90;99.90;;;;;;5100613;28;20182;-85
2021/11/22 05:00:37;;;;;;;244.50;227.70;;;6.00;99.90;;;;;;5118062;28;20190;-86
2021/11/22 05:03:11;;;;;;;240.15;222.95;;;6.00;99.90;;;;;;5117742;28;20440;-85
2021/11/22 05:05:40;;;;;;;290.25;272.20;;;6.00;99.90;;;;;;5117935;28;20241;-85
2021/11/22 05:08:15;;;;;;;273.52;256.05;;;6.00;99.90;;;;;;5116507;28;20211;-84
2021/11/22 05:10:43;;;;;;;265.13;247.90;;;6.00;99.90;;;;;;5117938;28;20154;-85
2021/11/22 05:13:18;;;;;;;294.95;276.80;;;6.10;99.90;;;;;;5099521;28;20572;-85
2021/11/22 05:15:51;;;;;;;288.92;270.45;;;6.00;99.90;;;;;;5100546;28;20545;-85
2021/11/22 05:18:19;;;;;;;264.42;246.40;;;6.00;99.90;;;;;;5099455;28;20169;-85
2021/11/22 05:20:48;;;;;;;262.95;245.80;;;6.00;99.90;;;;;;5099266;28;20170;-85
2021/11/22 05:23:15;;;;;;;256.75;239.60;;;6.10;99.90;;;;;;5117803;28;20270;-85
2021/11/22 05:25:42;;;;;;;284.60;266.15;;;6.00;99.90;;;;;;5099771;28;20166;-85
2021/11/22 05:28:08;;;;;;;279.25;261.70;;;6.00;99.90;;;;;;5098616;28;20181;-85
2021/11/22 05:30:47;;;;;;;259.20;242.50;;;6.10;99.90;;;;;;5098812;28;20182;-85
2021/11/22 05:33:17;;;;;;;260.13;243.07;;;6.10;99.90;;;;;;5116867;28;20176;-85
2021/11/22 05:35:43;;;;;;;301.15;282.17;;;6.10;99.90;;;;;;5116782;28;20154;-85
2021/11/22 05:38:09;;;;;;;257.70;240.83;;;6.10;99.90;;;;;;5098750;28;20660;-84
2021/11/22 05:40:37;;;;;;;274.23;257.37;;;6.20;99.90;;;;;;5123111;22;20214;-85
2021/11/22 05:43:03;;;;;;;236.18;219.93;;;6.20;99.90;;;;;;5117028;28;20208;-85
2021/11/22 05:45:29;;;;;;;266.47;249.57;;;6.10;99.90;;;;;;5098842;28;20174;-84
2021/11/22 05:47:58;;;;;;;256.53;239.47;;;6.20;99.90;;;;;;5098753;28;20495;-84
2021/11/22 05:50:27;;;;;;;291.85;273.58;;;6.20;99.90;;;;;;5117115;28;20795;-85
2021/11/22 05:53:01;;;;;;;232.82;216.48;;;6.20;99.90;;;;;;5098259;28;20538;-85
2021/11/22 05:55:33;;;;;;;284.02;265.80;;;6.10;99.90;;;;;;5116771;28;20163;-85
2021/11/22 05:58:08;;;;;;;230.35;214.07;;;6.10;99.90;;;;;;5098680;28;20641;-85
2021/11/22 06:00:34;;;;;;;261.30;244.15;;;6.10;99.90;;;;;;5115941;28;20188;-84
2021/11/22 06:03:06;;;;;;;265.25;247.55;;;6.10;99.90;;;;;;5098126;28;20182;-84
2021/11/22 06:05:39;;;;;;;227.65;211.10;;;6.10;99.90;;;;;;5097212;28;20174;-84
2021/11/22 06:08:06;;;;;;;260.83;243.60;;;6.10;99.90;;;;;;5128692;28;20494;-84
2021/11/22 06:10:41;;;;;;;275.17;257.25;;;6.10;99.90;;;;;;5118787;28;20224;-85
2021/11/22 06:13:15;;;;;;;264.52;247.20;;;6.10;99.90;;;;;;5118854;28;20256;-85
2021/11/22 06:15:45;;;;;;;243.95;227.50;;;6.10;99.90;;;;;;5119357;28;20176;-84
2021/11/22 06:18:17;;;;;;;266.27;249.38;;;6.20;99.90;;;;;;5119255;28;20170;-85
2021/11/22 06:21:03;;;;;;;256.58;239.32;;;6.10;99.90;;;;;;5120174;28;20154;-85
2021/11/22 06:23:35;;;;;;;274.08;257.10;;;6.10;99.90;;;;;;5119526;28;20692;-84
2021/11/22 06:26:19;;;;;;;270.58;253.20;;;6.10;99.90;;;;;;5119252;28;20253;-85
2021/11/22 06:29:08;;;;;;;302.17;283.50;;;6.10;99.90;;;;;;5118969;28;20264;-85
2021/11/22 06:31:42;;;;;;;272.63;255.20;;;6.10;99.90;;;;;;5119866;28;20240;-85
2021/11/22 06:34:34;;;;;;;241.10;225.02;;;6.10;99.90;;;;;;5138058;28;20226;-85
2021/11/22 06:37:00;;;;;;;259.00;241.50;;;6.10;99.90;;;;;;5115374;28;20174;-85
2021/11/22 06:39:45;;;;;;;270.77;253.93;;;6.10;99.90;;;;;;5137234;28;20246;-85
2021/11/22 06:42:21;;;;;;;223.45;207.50;;;6.10;99.90;;;;;;5119127;28;20201;-85
2021/11/22 06:44:48;;;;;;;226.43;210.63;;;6.10;99.90;;;;;;5123529;27;20186;-85
2021/11/22 06:47:31;;;;;;;233.63;217.52;;;6.10;99.90;;;;;;5123422;27;20169;-85
2021/11/22 06:50:05;;;;;;;226.32;210.50;;;6.10;99.90;;;;;;5122970;27;20182;-84
2021/11/22 06:52:36;;;;;;;239.93;223.80;;;6.10;99.90;;;;;;5123863;27;20180;-84
2021/11/22 06:56:02;;;;;;;215.90;200.27;;;6.10;99.90;;;;;;5141470;27;20257;-84
2021/11/22 06:58:50;;;;;;;192.27;177.43;;;6.10;99.90;;;;;;5027918;28;20268;-84
2021/11/22 07:01:27;;;;;;;236.50;220.40;;;6.10;99.90;;;;;;5021808;28;20235;-85
2021/11/22 07:03:56;;;;;;;204.55;189.40;;;6.00;99.90;;;;;;5021893;28;20224;-84
2021/11/22 07:06:48;;;;;;;222.45;207.15;;;6.00;99.90;;;;;;5019693;28;20192;-84
2021/11/22 07:10:06;;;;;;;179.05;164.25;;;6.00;99.90;;;;;;5092604;27;20694;-85
2021/11/22 07:15:52;;;;;;;116.60;104.45;;;6.00;99.90;;;;;;5141817;27;20168;-85
2021/11/22 07:18:37;;;;;;;115.10;103.13;;;5.90;99.90;;;;;;5140456;27;20165;-84
2021/11/22 07:21:03;;;;;;;98.80;80.53;;;5.90;99.90;;;;;;5122043;27;20236;-85
2021/11/22 07:23:53;;;;;;;97.65;74.00;;;5.90;99.90;;;;;;5122323;27;20610;-85
2021/11/22 07:34:00;;;;;;;101.50;82.97;;;5.80;99.90;;;;;;5098622;27;20181;-85
2021/11/22 07:36:35;;;;;;;98.60;79.10;;;5.70;99.90;;;;;;5117128;27;20173;-85
2021/11/22 07:39:07;;;;;;;101.88;82.90;;;5.70;99.90;;;;;;5140316;27;20196;-84
2021/11/22 07:41:56;;;;;;;101.75;71.50;;;5.70;99.90;;;;;;5121922;27;20182;-85
2021/11/22 07:44:28;;;;;;;93.72;62.88;;;5.70;99.90;;;;;;5123582;27;20697;-85
2021/11/22 07:47:14;;;;;;;100.65;63.35;;;5.70;99.90;;;;;;5122210;27;20245;-85
2021/11/22 07:49:55;;;;;;;91.22;54.53;;;5.80;99.90;;;;;;5121846;27;20644;-85
2021/11/22 07:52:24;;;;;;;94.70;55.65;;;5.80;99.90;;;;;;5140328;27;20157;-84
2021/11/22 07:55:06;;;;;;;96.40;61.45;;;5.80;99.90;;;;;;5139173;27;20166;-85
2021/11/22 07:57:40;;;;;;;96.28;65.57;;;5.80;99.90;;;;;;5123241;27;20250;-85
2021/11/22 08:00:21;;;;;;;94.78;62.75;;;5.70;99.90;;;;;;5122792;27;20193;-85
2021/11/22 08:02:52;;;;;;;94.10;61.05;;;5.70;99.90;;;;;;5140669;27;20177;-85
2021/11/22 08:05:27;;;;;;;104.07;92.75;;;5.80;99.90;;;;;;5122599;27;20264;-85
2021/11/22 08:07:55;;;;;;;99.85;87.35;;;5.70;99.90;;;;;;5123637;27;20158;-85
2021/11/22 08:10:28;;;;;;;106.10;88.65;;;5.70;99.90;;;;;;5122426;27;20721;-85
2021/11/22 08:13:00;;;;;;;103.10;91.45;;;5.80;99.90;;;;;;5141806;27;20160;-86
2021/11/22 08:15:28;;;;;;;94.88;74.30;;;5.80;99.90;;;;;;5123404;27;20193;-85
2021/11/22 08:20:46;;;;;;;89.18;54.88;;;5.80;99.90;;;;;;5130244;27;20177;-85
2021/11/22 08:23:18;;;;;;;90.25;58.95;;;5.90;99.90;;;;;;5122950;27;20560;-85
2021/11/22 08:25:51;;;;;;;90.15;59.42;;;5.90;99.90;;;;;;5141404;27;20214;-85
2021/11/22 08:28:19;;;;;;;91.18;62.58;;;5.90;99.90;;;;;;5142148;27;20142;-86
2021/11/22 08:30:48;;;;;;;91.22;61.17;;;5.90;99.90;;;;;;5142125;27;20153;-85
2021/11/22 08:33:23;;;;;;;90.60;57.10;;;5.90;99.90;;;;;;5140964;27;20175;-85
2021/11/22 08:35:52;;;;;;;93.25;59.28;;;6.00;99.90;;;;;;5122453;27;20230;-86
2021/11/22 08:38:19;;;;;;;96.03;65.57;;;6.00;99.90;;;;;;5122753;27;20198;-85
2021/11/22 08:40:46;;;;;;;88.72;48.75;;;6.10;99.90;;;;;;5123280;27;20193;-85
2021/11/22 08:43:14;;;;;;;96.20;60.42;;;6.10;99.90;;;;;;5140964;27;20185;-84
2021/11/22 08:45:40;;;;;;;110.22;97.85;;;6.20;99.90;;;;;;5141221;27;20154;-86
2021/11/22 08:48:10;;;;;;;92.22;68.03;;;6.30;99.90;;;;;;5122258;27;20162;-85
2021/11/22 08:50:42;;;;;;;93.13;73.00;;;6.40;99.90;;;;;;5122625;27;20197;-86
2021/11/22 08:53:08;;;;;;;92.50;66.30;;;6.50;99.90;;;;;;5140846;27;20165;-86
2021/11/22 08:55:40;;;;;;;81.13;34.87;;;6.60;99.90;;;;;;5140331;27;20240;-86
2021/11/22 08:58:06;;;;;;;84.63;38.75;;;6.70;99.90;;;;;;5173383;22;20264;-84
2021/11/22 09:00:35;;;;;;;77.33;24.40;;;6.70;99.90;;;;;;5104340;28;20179;-84
2021/11/22 09:03:01;;;;;;;77.97;23.95;;;6.80;99.90;;;;;;5103783;28;20468;-84
2021/11/22 09:05:27;;;;;;;77.60;22.75;;;6.80;99.90;;;;;;5103164;28;20191;-84
2021/11/22 09:07:56;;;;;;;73.47;17.43;;;6.80;99.90;;;;;;5104096;28;20185;-84
2021/11/22 09:10:23;;;;;;;79.35;30.73;;;6.80;99.90;;;;;;5103657;28;20417;-84
2021/11/22 09:12:50;;;;;;;79.25;28.60;;;7.00;99.90;;;;;;5101544;28;20230;-84
2021/11/22 09:15:16;;;;;;;75.50;20.40;;;7.00;99.90;;;;;;5104518;28;20572;-84
2021/11/22 09:17:43;;;;;;;75.03;15.27;;;7.10;99.90;;;;;;5105067;28;20211;-84
2021/11/22 09:20:09;;;;;;;76.15;18.52;;;7.10;99.90;;;;;;5105312;28;20262;-84
2021/11/22 09:22:35;;;;;;;76.15;13.70;;;7.00;99.90;;;;;;5102672;28;20585;-84
2021/11/22 09:25:04;;;;;;;73.25;11.88;;;7.00;99.90;;;;;;5103615;28;20163;-84
2021/11/22 09:27:30;;;;;;;75.10;10.25;;;6.90;99.90;;;;;;5104376;28;20167;-84
2021/11/22 09:29:59;;;;;;;71.70;11.33;;;7.00;99.90;;;;;;5105117;28;20206;-84
2021/11/22 09:32:24;;;;;;;72.80;11.05;;;6.80;99.90;;;;;;5105606;28;20408;-84
2021/11/22 09:34:50;;;;;;;71.27;9.73;;;6.70;99.90;;;;;;5105039;28;20163;-84
2021/11/22 09:37:16;;;;;;;72.80;11.50;;;6.70;99.90;;;;;;5105221;28;20163;-84
2021/11/22 09:39:43;;;;;;;73.95;10.82;;;6.70;99.90;;;;;;5105159;28;20257;-84
2021/11/22 09:42:09;;;;;;;75.35;11.07;;;6.80;99.90;;;;;;5104417;28;20266;-84
2021/11/22 09:44:35;;;;;;;73.43;11.20;;;6.80;99.90;;;;;;5103790;28;20204;-84
2021/11/22 09:47:01;;;;;;;74.40;11.63;;;6.90;99.90;;;;;;5104606;28;20191;-84
2021/11/22 09:49:27;;;;;;;76.38;13.25;;;6.80;99.90;;;;;;5104985;28;20194;-84
2021/11/22 09:51:54;;;;;;;71.70;11.10;;;6.90;99.90;;;;;;5102134;28;20170;-84
2021/11/22 09:54:20;;;;;;;73.57;12.05;;;7.00;99.90;;;;;;5103820;28;20159;-84
2021/11/22 09:56:49;;;;;;;70.83;11.53;;;7.00;99.90;;;;;;5101196;28;20664;-84
2021/11/22 09:59:20;;;;;;;72.53;11.18;;;7.00;99.90;;;;;;5102268;28;20433;-84
2021/11/22 10:01:52;;;;;;;71.65;9.40;;;7.20;99.90;;;;;;5103810;28;20166;-84
2021/11/22 10:04:19;;;;;;;76.10;16.73;;;7.30;99.90;;;;;;5104266;28;20176;-84
2021/11/22 10:07:01;;;;;;;75.60;21.15;;;7.40;99.90;;;;;;5101449;28;20167;-83
2021/11/22 10:09:33;;;;;;;77.65;24.50;;;7.40;99.90;;;;;;5102078;28;20221;-84
2021/11/22 10:12:17;;;;;;;76.90;23.77;;;7.40;99.90;;;;;;5101836;28;20159;-84
2021/11/22 10:14:44;;;;;;;72.07;15.63;;;7.30;99.90;;;;;;5100107;28;20161;-83
2021/11/22 10:17:39;;;;;;;76.22;24.48;;;7.40;99.90;;;;;;5101247;28;20170;-84
2021/11/22 10:20:27;;;;;;;72.22;18.90;;;7.20;99.90;;;;;;5101341;28;20179;-83
2021/11/22 10:23:02;;;;;;;74.60;20.40;;;7.10;99.90;;;;;;5101768;28;20236;-84
2021/11/22 10:25:40;;;;;;;72.72;14.88;;;7.10;99.90;;;;;;5099489;28;20189;-83
2021/11/22 10:28:36;;;;;;;74.53;20.88;;;7.00;99.90;;;;;;5102587;28;20139;-84
2021/11/22 10:31:14;;;;;;;74.68;21.83;;;7.20;99.90;;;;;;5102387;28;20175;-86
2021/11/22 10:33:41;;;;;;;73.75;16.45;;;7.40;99.90;;;;;;5105181;28;20170;-86
2021/11/22 10:36:10;;;;;;;74.25;15.90;;;7.50;99.90;;;;;;5104678;28;20175;-84
2021/11/22 10:38:41;;;;;;;73.45;15.82;;;7.40;99.90;;;;;;5105747;28;20285;-84
2021/11/22 10:41:16;;;;;;;70.05;10.57;;;7.40;99.90;;;;;;5106640;28;20156;-83
2021/11/22 10:43:49;;;;;;;70.93;11.50;;;7.40;99.90;;;;;;5104223;28;20182;-84
2021/11/22 10:46:17;;;;;;;73.10;12.52;;;7.30;99.90;;;;;;5105545;28;20149;-84
2021/11/22 10:48:51;;;;;;;71.18;15.13;;;7.40;99.90;;;;;;5106234;28;20516;-86
2021/11/22 10:51:24;;;;;;;70.25;13.60;;;7.40;99.90;;;;;;5106248;28;20143;-84
2021/11/22 10:54:05;;;;;;;69.97;12.30;;;7.30;99.90;;;;;;5107089;28;20155;-83
2021/11/22 10:56:37;;;;;;;72.47;14.35;;;7.40;99.90;;;;;;5106337;28;20174;-84
2021/11/22 10:59:09;;;;;;;71.88;16.20;;;7.30;99.90;;;;;;5105855;28;20187;-84
2021/11/22 11:01:38;;;;;;;71.18;15.60;;;7.30;99.90;;;;;;5106587;28;20155;-83
2021/11/22 11:04:14;;;;;;;71.28;14.75;;;7.40;99.90;;;;;;5105873;28;20191;-84
2021/11/22 11:06:45;;;;;;;71.85;17.65;;;7.30;99.90;;;;;;5105379;28;20610;-84
2021/11/22 11:09:19;;;;;;;74.55;16.05;;;7.50;99.90;;;;;;5105650;28;20182;-83
2021/11/22 11:11:47;;;;;;;71.00;15.45;;;7.50;99.90;;;;;;5105105;28;20208;-84
2021/11/22 11:14:15;;;;;;;74.97;26.13;;;7.40;99.90;;;;;;5106372;28;20196;-83
2021/11/22 11:16:43;;;;;;;79.95;30.52;;;7.40;99.90;;;;;;5106041;28;20175;-83
2021/11/22 11:19:14;;;;;;;76.22;32.65;;;7.30;99.90;;;;;;5104359;28;20183;-83
2021/11/22 11:21:46;;;;;;;74.90;29.13;;;7.20;97.20;;;;;;5103437;28;20148;-83
2021/11/22 11:24:13;;;;;;;72.88;20.80;;;7.20;97.40;;;;;;5104497;28;20175;-84
2021/11/22 11:26:40;;;;;;;70.03;11.95;;;7.20;94.50;;;;;;5105219;28;20258;-84
2021/11/22 11:29:07;;;;;;;72.15;14.80;;;7.10;97.20;;;;;;5106651;28;20183;-83
2021/11/22 11:31:35;;;;;;;73.53;13.82;;;7.10;97.90;;;;;;5109228;28;20155;-83
2021/11/22 11:34:06;;;;;;;74.88;15.25;;;7.20;96.10;;;;;;5106157;28;20503;-82
2021/11/22 11:37:09;;;;;;;71.15;13.98;;;7.30;96.80;;;;;;5104415;28;20143;-83
2021/11/22 11:40:12;;;;;;;71.65;12.50;;;7.40;98.00;;;;;;5107994;28;20272;-83
2021/11/22 11:43:15;;;;;;;75.35;27.63;;;7.60;99.20;;;;;;5106409;28;20190;-82
2021/11/22 11:45:44;;;;;;;75.47;28.23;;;7.90;97.70;;;;;;5107531;28;20159;-82
2021/11/22 11:48:16;;;;;;;78.45;35.28;;;7.80;94.90;;;;;;5106865;28;20155;-82
2021/11/22 11:50:45;;;;;;;81.93;35.80;;;8.00;92.90;;;;;;5106729;28;20156;-84
2021/11/22 11:53:16;;;;;;;76.60;30.05;;;8.20;94.40;;;;;;5105911;28;20258;-83
2021/11/22 11:55:44;;;;;;;73.38;21.52;;;8.30;92.00;;;;;;5106093;28;20242;-83
2021/11/22 11:58:26;;;;;;;73.13;21.23;;;8.30;88.80;;;;;;5103655;28;20186;-83
2021/11/22 12:00:55;;;;;;;71.53;12.15;;;8.40;91.20;;;;;;5103182;28;20163;-83
2021/11/22 12:03:22;;;;;;;69.82;12.30;;;8.40;87.40;;;;;;5103685;28;20194;-84
2021/11/22 12:05:53;;;;;;;72.43;13.38;;;8.40;90.10;;;;;;5109596;28;20159;-84
2021/11/22 12:08:26;;;;;;;71.90;13.85;;;8.40;90.80;;;;;;5106639;28;20506;-83
2021/11/22 12:10:55;;;;;;;74.40;16.80;;;8.30;88.60;;;;;;5106417;28;20697;-84
2021/11/22 12:13:21;;;;;;;72.32;14.65;;;8.20;89.70;;;;;;5106644;28;20626;-84
2021/11/22 12:15:50;;;;;;;73.75;16.02;;;8.10;87.60;;;;;;5105639;28;20672;-84
2021/11/22 12:18:25;;;;;;;74.88;16.77;;;8.00;90.10;;;;;;5106261;28;20688;-84
2021/11/22 12:20:53;;;;;;;75.60;23.40;;;7.90;90.00;;;;;;5104057;28;20166;-84
2021/11/22 12:23:25;;;;;;;74.45;20.13;;;7.80;92.20;;;;;;5104847;28;20594;-84
2021/11/22 12:25:57;;;;;;;76.72;30.40;;;7.70;91.80;;;;;;5102126;28;20156;-83
2021/11/22 12:28:23;;;;;;;78.57;28.65;;;7.60;93.20;;;;;;5105789;28;20189;-83
2021/11/22 12:31:11;;;;;;;73.80;24.97;;;7.60;93.40;;;;;;5106238;28;20234;-82
2021/11/22 12:33:43;;;;;;;74.93;23.23;;;7.60;92.40;;;;;;5105425;28;20177;-84
2021/11/22 12:36:12;;;;;;;73.00;20.48;;;7.60;93.80;;;;;;5104552;28;20159;-84
2021/11/22 12:38:41;;;;;;;77.07;19.50;;;7.60;91.90;;;;;;5105730;28;20191;-84
2021/11/22 12:41:21;;;;;;;70.47;14.90;;;7.60;91.60;;;;;;5105085;28;20198;-84
2021/11/22 12:43:56;;;;;;;69.65;11.52;;;7.50;90.90;;;;;;5106315;28;20261;-84
2021/11/22 12:46:47;;;;;;;68.95;12.77;;;7.50;89.70;;;;;;5106175;28;20616;-84
2021/11/22 12:49:37;;;;;;;71.88;20.58;;;7.60;91.00;;;;;;5094905;28;20199;-84
2021/11/22 12:52:31;;;;;;;72.38;24.45;;;7.60;79.90;;;;;;5103544;28;20150;-84
2021/11/22 12:55:19;;;;;;;73.93;25.67;;;7.70;79.10;;;;;;5104259;28;20146;-84
2021/11/22 12:57:47;;;;;;;74.00;26.40;;;7.70;78.00;;;;;;5103052;28;20196;-84
2021/11/22 13:00:26;;;;;;;73.60;24.98;;;7.70;76.50;;;;;;5104739;28;20187;-84
2021/11/22 13:02:57;;;;;;;75.60;27.30;;;7.70;72.50;;;;;;5103411;28;20285;-84
2021/11/22 13:05:45;;;;;;;73.22;25.33;;;7.70;71.10;;;;;;5106978;28;20155;-84
2021/11/22 13:08:17;;;;;;;72.38;25.13;;;7.70;71.70;;;;;;5105034;28;20167;-84
2021/11/22 13:10:51;;;;;;;72.78;25.85;;;7.70;70.30;;;;;;5101889;28;20226;-84
2021/11/22 13:13:28;;;;;;;67.65;13.07;;;7.70;73.10;;;;;;5103516;28;20151;-84
2021/11/22 13:15:59;;;;;;;68.78;12.60;;;7.70;65.20;;;;;;5103622;28;20155;-83
2021/11/22 13:18:33;;;;;;;68.28;11.80;;;7.70;60.90;;;;;;5103428;28;20155;-84